Search METAR Data

METAR Data for PTPN:

PTPN 240550Z 07008KT 12SM BKN017TCU OVC130 28/25 A2979 RMK TCU ALQDS LAST